Londonderry, United Kingdom
Current Conditions -  °F | °C
As of 4:50 AM on Tuesday 21 Oct 2014 (Local Time) from EGAA Reporting Station
Few Clouds Few Clouds  
Wind Chill: 40°   Ceiling: Unl
Heat Index: 48°   Visibility: 6mi
Dew Point: 41°   Wind: 29mph
Humidity: 76%   Direction: 290°WNW
Pressure: 29.35"   Gusts: 41mph
Location:  54.99°N, 7.31°W
Report Text: EGAA 210350Z 29025G36KT 9999 FEW026 09/05 Q0994
Loading
Personal Weather Stations






























Interactive Weather Map
Tropical Storm Tracking
New forecast layout! Learn more

10-Day Weather Forecast

Advertisements
Track Severe Weather on mobile